sensor_id;sensor_type;location;lat;lon;timestamp;P1;durP1;ratioP1;P2;durP2;ratioP2
46487;SDS011;32202;48.780;9.204;2022-11-15T00:01:35;8.38;;;3.88;;
46487;SDS011;32202;48.780;9.204;2022-11-15T00:04:02;8.48;;;3.80;;
46487;SDS011;32202;48.780;9.204;2022-11-15T00:06:28;5.88;;;3.58;;
46487;SDS011;32202;48.780;9.204;2022-11-15T00:08:54;151.77;;;73.32;;
46487;SDS011;32202;48.780;9.204;2022-11-15T00:11:22;227.77;;;111.82;;
46487;SDS011;32202;48.780;9.204;2022-11-15T00:13:48;93.20;;;46.03;;
46487;SDS011;32202;48.780;9.204;2022-11-15T00:16:14;14.43;;;7.45;;
46487;SDS011;32202;48.780;9.204;2022-11-15T00:18:40;60.70;;;31.10;;
46487;SDS011;32202;48.780;9.204;2022-11-15T00:21:07;43.35;;;22.20;;
46487;SDS011;32202;48.780;9.204;2022-11-15T00:23:35;22.08;;;11.23;;
46487;SDS011;32202;48.780;9.204;2022-11-15T00:26:00;17.20;;;8.02;;
46487;SDS011;32202;48.780;9.204;2022-11-15T00:28:27;38.53;;;18.38;;
46487;SDS011;32202;48.780;9.204;2022-11-15T00:30:52;318.90;;;152.05;;
46487;SDS011;32202;48.780;9.204;2022-11-15T00:33:18;684.45;;;407.35;;
46487;SDS011;32202;48.780;9.204;2022-11-15T00:35:44;50.33;;;25.80;;
46487;SDS011;32202;48.780;9.204;2022-11-15T00:38:09;354.73;;;168.40;;
46487;SDS011;32202;48.780;9.204;2022-11-15T00:40:35;629.13;;;363.63;;
46487;SDS011;32202;48.780;9.204;2022-11-15T00:43:00;743.95;;;454.25;;
46487;SDS011;32202;48.780;9.204;2022-11-15T00:45:26;420.95;;;213.32;;
46487;SDS011;32202;48.780;9.204;2022-11-15T00:47:52;204.70;;;99.38;;
46487;SDS011;32202;48.780;9.204;2022-11-15T00:50:18;191.18;;;88.43;;
46487;SDS011;32202;48.780;9.204;2022-11-15T00:52:44;150.45;;;71.78;;
46487;SDS011;32202;48.780;9.204;2022-11-15T00:55:14;271.70;;;129.32;;
46487;SDS011;32202;48.780;9.204;2022-11-15T00:57:41;505.02;;;283.13;;
46487;SDS011;32202;48.780;9.204;2022-11-15T01:00:07;745.65;;;449.60;;
46487;SDS011;32202;48.780;9.204;2022-11-15T01:02:33;190.02;;;91.50;;
46487;SDS011;32202;48.780;9.204;2022-11-15T01:04:59;726.47;;;442.90;;
46487;SDS011;32202;48.780;9.204;2022-11-15T01:07:25;391.20;;;194.57;;
46487;SDS011;32202;48.780;9.204;2022-11-15T01:09:50;322.73;;;150.95;;
46487;SDS011;32202;48.780;9.204;2022-11-15T01:12:16;54.97;;;27.13;;
46487;SDS011;32202;48.780;9.204;2022-11-15T01:14:41;31.73;;;15.52;;
46487;SDS011;32202;48.780;9.204;2022-11-15T01:17:07;48.45;;;23.70;;
46487;SDS011;32202;48.780;9.204;2022-11-15T01:19:33;251.07;;;111.93;;
46487;SDS011;32202;48.780;9.204;2022-11-15T01:21:58;77.05;;;36.35;;
46487;SDS011;32202;48.780;9.204;2022-11-15T01:24:24;519.47;;;280.92;;
46487;SDS011;32202;48.780;9.204;2022-11-15T01:26:49;215.73;;;99.43;;
46487;SDS011;32202;48.780;9.204;2022-11-15T01:29:15;233.30;;;105.32;;
46487;SDS011;32202;48.780;9.204;2022-11-15T01:31:41;189.98;;;86.03;;
46487;SDS011;32202;48.780;9.204;2022-11-15T01:34:06;131.02;;;58.13;;
46487;SDS011;32202;48.780;9.204;2022-11-15T01:36:32;61.83;;;30.02;;
46487;SDS011;32202;48.780;9.204;2022-11-15T01:38:58;9.40;;;4.60;;
46487;SDS011;32202;48.780;9.204;2022-11-15T01:41:25;20.65;;;9.23;;
46487;SDS011;32202;48.780;9.204;2022-11-15T01:43:53;39.45;;;17.08;;
46487;SDS011;32202;48.780;9.204;2022-11-15T01:46:41;9.10;;;3.63;;
46487;SDS011;32202;48.780;9.204;2022-11-15T01:49:16;14.00;;;6.03;;
46487;SDS011;32202;48.780;9.204;2022-11-15T01:51:44;14.88;;;6.82;;
46487;SDS011;32202;48.780;9.204;2022-11-15T01:54:11;19.63;;;9.15;;
46487;SDS011;32202;48.780;9.204;2022-11-15T01:56:43;23.88;;;10.70;;
46487;SDS011;32202;48.780;9.204;2022-11-15T01:59:15;13.23;;;6.93;;
46487;SDS011;32202;48.780;9.204;2022-11-15T02:01:40;8.02;;;3.70;;
46487;SDS011;32202;48.780;9.204;2022-11-15T02:04:14;8.93;;;5.00;;
46487;SDS011;32202;48.780;9.204;2022-11-15T02:06:43;11.13;;;4.38;;
46487;SDS011;32202;48.780;9.204;2022-11-15T02:09:10;9.80;;;5.18;;
46487;SDS011;32202;48.780;9.204;2022-11-15T02:11:37;12.30;;;6.28;;
46487;SDS011;32202;48.780;9.204;2022-11-15T02:14:02;7.07;;;3.10;;
46487;SDS011;32202;48.780;9.204;2022-11-15T02:16:50;12.68;;;6.25;;
46487;SDS011;32202;48.780;9.204;2022-11-15T02:30:30;6.85;;;3.63;;
46487;SDS011;32202;48.780;9.204;2022-11-15T02:36:09;5.35;;;2.72;;
46487;SDS011;32202;48.780;9.204;2022-11-15T02:41:16;7.13;;;4.13;;
46487;SDS011;32202;48.780;9.204;2022-11-15T02:43:50;7.47;;;3.75;;
46487;SDS011;32202;48.780;9.204;2022-11-15T02:46:31;7.32;;;3.83;;
46487;SDS011;32202;48.780;9.204;2022-11-15T02:49:21;5.55;;;3.25;;
46487;SDS011;32202;48.780;9.204;2022-11-15T02:51:49;4.97;;;3.10;;
46487;SDS011;32202;48.780;9.204;2022-11-15T02:54:19;4.90;;;3.00;;
46487;SDS011;32202;48.780;9.204;2022-11-15T02:56:47;8.48;;;3.60;;
46487;SDS011;32202;48.780;9.204;2022-11-15T03:04:47;8.13;;;3.80;;
46487;SDS011;32202;48.780;9.204;2022-11-15T03:07:30;5.25;;;3.33;;
46487;SDS011;32202;48.780;9.204;2022-11-15T03:10:25;7.35;;;3.63;;
46487;SDS011;32202;48.780;9.204;2022-11-15T03:13:03;5.45;;;3.50;;
46487;SDS011;32202;48.780;9.204;2022-11-15T03:15:46;6.35;;;3.38;;
46487;SDS011;32202;48.780;9.204;2022-11-15T03:18:31;7.35;;;3.58;;
46487;SDS011;32202;48.780;9.204;2022-11-15T03:21:01;7.47;;;4.00;;
46487;SDS011;32202;48.780;9.204;2022-11-15T03:23:30;8.27;;;4.45;;
46487;SDS011;32202;48.780;9.204;2022-11-15T03:25:58;7.28;;;3.65;;
46487;SDS011;32202;48.780;9.204;2022-11-15T03:28:32;7.13;;;4.03;;
46487;SDS011;32202;48.780;9.204;2022-11-15T03:31:07;6.05;;;3.40;;
46487;SDS011;32202;48.780;9.204;2022-11-15T03:33:56;7.18;;;3.60;;
46487;SDS011;32202;48.780;9.204;2022-11-15T03:36:24;9.50;;;4.35;;
46487;SDS011;32202;48.780;9.204;2022-11-15T03:38:52;5.18;;;3.35;;
46487;SDS011;32202;48.780;9.204;2022-11-15T03:44:15;5.50;;;3.30;;
46487;SDS011;32202;48.780;9.204;2022-11-15T03:52:14;6.07;;;3.50;;
46487;SDS011;32202;48.780;9.204;2022-11-15T03:55:03;32.40;;;16.83;;
46487;SDS011;32202;48.780;9.204;2022-11-15T03:57:30;14.07;;;7.68;;
46487;SDS011;32202;48.780;9.204;2022-11-15T03:59:55;16.40;;;8.07;;
46487;SDS011;32202;48.780;9.204;2022-11-15T04:02:21;22.65;;;11.02;;
46487;SDS011;32202;48.780;9.204;2022-11-15T04:04:46;48.78;;;23.25;;
46487;SDS011;32202;48.780;9.204;2022-11-15T04:07:12;41.17;;;24.15;;
46487;SDS011;32202;48.780;9.204;2022-11-15T04:09:38;35.90;;;17.40;;
46487;SDS011;32202;48.780;9.204;2022-11-15T04:12:23;15.23;;;7.25;;
46487;SDS011;32202;48.780;9.204;2022-11-15T04:14:56;6.38;;;3.97;;
46487;SDS011;32202;48.780;9.204;2022-11-15T04:17:33;8.50;;;4.50;;
46487;SDS011;32202;48.780;9.204;2022-11-15T04:20:00;248.40;;;119.72;;
46487;SDS011;32202;48.780;9.204;2022-11-15T04:22:45;66.32;;;31.92;;
46487;SDS011;32202;48.780;9.204;2022-11-15T04:25:29;138.55;;;68.55;;
46487;SDS011;32202;48.780;9.204;2022-11-15T04:27:55;43.15;;;22.10;;
46487;SDS011;32202;48.780;9.204;2022-11-15T04:30:20;31.40;;;15.73;;
46487;SDS011;32202;48.780;9.204;2022-11-15T04:32:46;45.42;;;20.95;;
46487;SDS011;32202;48.780;9.204;2022-11-15T04:35:12;50.90;;;24.95;;
46487;SDS011;32202;48.780;9.204;2022-11-15T04:37:37;51.85;;;24.60;;
46487;SDS011;32202;48.780;9.204;2022-11-15T04:40:03;48.83;;;23.70;;
46487;SDS011;32202;48.780;9.204;2022-11-15T04:42:29;19.20;;;9.48;;
46487;SDS011;32202;48.780;9.204;2022-11-15T04:44:54;37.42;;;18.42;;
46487;SDS011;32202;48.780;9.204;2022-11-15T04:47:20;34.30;;;17.33;;
46487;SDS011;32202;48.780;9.204;2022-11-15T04:49:46;81.28;;;39.42;;
46487;SDS011;32202;48.780;9.204;2022-11-15T04:52:11;24.58;;;12.75;;
46487;SDS011;32202;48.780;9.204;2022-11-15T04:54:37;13.55;;;6.03;;
46487;SDS011;32202;48.780;9.204;2022-11-15T04:57:03;36.17;;;18.58;;
46487;SDS011;32202;48.780;9.204;2022-11-15T04:59:28;21.00;;;10.90;;
46487;SDS011;32202;48.780;9.204;2022-11-15T05:01:54;34.78;;;17.92;;
46487;SDS011;32202;48.780;9.204;2022-11-15T05:04:19;17.40;;;9.68;;
46487;SDS011;32202;48.780;9.204;2022-11-15T05:06:46;10.73;;;4.47;;
46487;SDS011;32202;48.780;9.204;2022-11-15T05:09:16;21.92;;;11.75;;
46487;SDS011;32202;48.780;9.204;2022-11-15T05:11:43;23.48;;;12.00;;
46487;SDS011;32202;48.780;9.204;2022-11-15T05:14:08;17.17;;;8.82;;
46487;SDS011;32202;48.780;9.204;2022-11-15T05:16:34;16.38;;;7.95;;
46487;SDS011;32202;48.780;9.204;2022-11-15T05:19:00;6.63;;;3.67;;
46487;SDS011;32202;48.780;9.204;2022-11-15T05:21:25;14.15;;;5.13;;
46487;SDS011;32202;48.780;9.204;2022-11-15T05:23:51;8.68;;;4.50;;
46487;SDS011;32202;48.780;9.204;2022-11-15T05:26:17;7.75;;;4.10;;
46487;SDS011;32202;48.780;9.204;2022-11-15T05:28:43;35.97;;;16.77;;
46487;SDS011;32202;48.780;9.204;2022-11-15T05:31:13;23.58;;;12.30;;
46487;SDS011;32202;48.780;9.204;2022-11-15T05:33:40;8.93;;;5.07;;
46487;SDS011;32202;48.780;9.204;2022-11-15T05:36:09;20.63;;;10.90;;
46487;SDS011;32202;48.780;9.204;2022-11-15T05:38:42;11.60;;;5.68;;
46487;SDS011;32202;48.780;9.204;2022-11-15T05:41:08;8.90;;;5.45;;
46487;SDS011;32202;48.780;9.204;2022-11-15T05:43:35;9.90;;;5.50;;
46487;SDS011;32202;48.780;9.204;2022-11-15T05:46:03;21.02;;;11.25;;
46487;SDS011;32202;48.780;9.204;2022-11-15T05:48:29;22.75;;;11.63;;
46487;SDS011;32202;48.780;9.204;2022-11-15T05:50:56;21.58;;;11.25;;
46487;SDS011;32202;48.780;9.204;2022-11-15T05:53:22;22.35;;;11.93;;
46487;SDS011;32202;48.780;9.204;2022-11-15T05:55:49;28.52;;;13.65;;
46487;SDS011;32202;48.780;9.204;2022-11-15T05:58:16;24.52;;;12.52;;
46487;SDS011;32202;48.780;9.204;2022-11-15T06:00:43;11.40;;;6.40;;
46487;SDS011;32202;48.780;9.204;2022-11-15T06:03:08;17.90;;;8.85;;
46487;SDS011;32202;48.780;9.204;2022-11-15T06:05:34;10.77;;;5.57;;
46487;SDS011;32202;48.780;9.204;2022-11-15T06:08:00;12.25;;;6.90;;
46487;SDS011;32202;48.780;9.204;2022-11-15T06:10:25;15.40;;;8.45;;
46487;SDS011;32202;48.780;9.204;2022-11-15T06:13:01;17.20;;;8.23;;
46487;SDS011;32202;48.780;9.204;2022-11-15T06:15:28;11.70;;;5.55;;
46487;SDS011;32202;48.780;9.204;2022-11-15T06:17:57;8.00;;;4.18;;
46487;SDS011;32202;48.780;9.204;2022-11-15T06:20:23;6.72;;;2.97;;
46487;SDS011;32202;48.780;9.204;2022-11-15T06:22:50;6.40;;;3.25;;
46487;SDS011;32202;48.780;9.204;2022-11-15T06:25:16;4.70;;;3.05;;
46487;SDS011;32202;48.780;9.204;2022-11-15T06:27:41;7.70;;;4.68;;
46487;SDS011;32202;48.780;9.204;2022-11-15T06:30:07;12.00;;;6.10;;
46487;SDS011;32202;48.780;9.204;2022-11-15T06:32:33;13.52;;;6.22;;
46487;SDS011;32202;48.780;9.204;2022-11-15T06:34:58;13.10;;;6.07;;
46487;SDS011;32202;48.780;9.204;2022-11-15T06:37:24;14.82;;;8.98;;
46487;SDS011;32202;48.780;9.204;2022-11-15T06:39:50;16.15;;;8.35;;
46487;SDS011;32202;48.780;9.204;2022-11-15T06:42:15;12.38;;;6.28;;
46487;SDS011;32202;48.780;9.204;2022-11-15T06:44:41;16.05;;;6.68;;
46487;SDS011;32202;48.780;9.204;2022-11-15T06:47:06;20.73;;;10.95;;
46487;SDS011;32202;48.780;9.204;2022-11-15T06:49:32;17.90;;;9.32;;
46487;SDS011;32202;48.780;9.204;2022-11-15T06:51:57;18.65;;;10.20;;
46487;SDS011;32202;48.780;9.204;2022-11-15T06:54:23;11.05;;;6.13;;
46487;SDS011;32202;48.780;9.204;2022-11-15T06:56:48;12.00;;;7.20;;
46487;SDS011;32202;48.780;9.204;2022-11-15T06:59:14;10.82;;;6.22;;
46487;SDS011;32202;48.780;9.204;2022-11-15T07:01:40;7.45;;;4.18;;
46487;SDS011;32202;48.780;9.204;2022-11-15T07:04:05;8.90;;;4.75;;
46487;SDS011;32202;48.780;9.204;2022-11-15T07:06:32;11.77;;;5.97;;
46487;SDS011;32202;48.780;9.204;2022-11-15T07:08:58;12.73;;;6.35;;
46487;SDS011;32202;48.780;9.204;2022-11-15T07:11:23;12.30;;;6.13;;
46487;SDS011;32202;48.780;9.204;2022-11-15T07:13:49;13.93;;;7.32;;
46487;SDS011;32202;48.780;9.204;2022-11-15T07:16:14;12.05;;;6.72;;
46487;SDS011;32202;48.780;9.204;2022-11-15T07:18:40;22.10;;;12.07;;
46487;SDS011;32202;48.780;9.204;2022-11-15T07:21:07;18.65;;;9.63;;
46487;SDS011;32202;48.780;9.204;2022-11-15T07:23:38;21.40;;;11.80;;
46487;SDS011;32202;48.780;9.204;2022-11-15T07:26:04;13.85;;;7.88;;
46487;SDS011;32202;48.780;9.204;2022-11-15T07:28:30;9.45;;;4.57;;
46487;SDS011;32202;48.780;9.204;2022-11-15T07:30:56;7.35;;;4.65;;
46487;SDS011;32202;48.780;9.204;2022-11-15T07:33:21;10.20;;;5.70;;
46487;SDS011;32202;48.780;9.204;2022-11-15T07:35:47;13.25;;;5.85;;
46487;SDS011;32202;48.780;9.204;2022-11-15T07:38:15;14.18;;;7.40;;
46487;SDS011;32202;48.780;9.204;2022-11-15T07:40:45;10.45;;;6.63;;
46487;SDS011;32202;48.780;9.204;2022-11-15T07:43:11;14.07;;;6.47;;
46487;SDS011;32202;48.780;9.204;2022-11-15T07:45:40;14.75;;;7.18;;
46487;SDS011;32202;48.780;9.204;2022-11-15T07:48:07;15.32;;;7.35;;
46487;SDS011;32202;48.780;9.204;2022-11-15T07:50:33;17.25;;;7.07;;
46487;SDS011;32202;48.780;9.204;2022-11-15T07:52:59;15.20;;;6.85;;
46487;SDS011;32202;48.780;9.204;2022-11-15T07:55:25;14.73;;;6.38;;
46487;SDS011;32202;48.780;9.204;2022-11-15T07:57:53;14.32;;;6.57;;
46487;SDS011;32202;48.780;9.204;2022-11-15T08:00:24;12.65;;;7.07;;
46487;SDS011;32202;48.780;9.204;2022-11-15T08:02:50;16.73;;;7.95;;
46487;SDS011;32202;48.780;9.204;2022-11-15T08:05:15;14.45;;;6.93;;
46487;SDS011;32202;48.780;9.204;2022-11-15T08:07:41;16.15;;;7.03;;
46487;SDS011;32202;48.780;9.204;2022-11-15T08:10:07;12.98;;;7.20;;
46487;SDS011;32202;48.780;9.204;2022-11-15T08:12:33;10.73;;;6.05;;
46487;SDS011;32202;48.780;9.204;2022-11-15T08:14:59;11.15;;;5.95;;
46487;SDS011;32202;48.780;9.204;2022-11-15T08:17:28;13.18;;;5.88;;
46487;SDS011;32202;48.780;9.204;2022-11-15T08:19:57;11.73;;;6.10;;
46487;SDS011;32202;48.780;9.204;2022-11-15T08:22:23;10.25;;;5.70;;
46487;SDS011;32202;48.780;9.204;2022-11-15T08:24:49;11.85;;;5.57;;
46487;SDS011;32202;48.780;9.204;2022-11-15T08:27:14;12.15;;;5.75;;
46487;SDS011;32202;48.780;9.204;2022-11-15T08:29:43;11.02;;;5.90;;
46487;SDS011;32202;48.780;9.204;2022-11-15T08:32:10;14.57;;;6.32;;
46487;SDS011;32202;48.780;9.204;2022-11-15T08:34:36;11.75;;;5.38;;
46487;SDS011;32202;48.780;9.204;2022-11-15T08:37:02;13.15;;;6.28;;
46487;SDS011;32202;48.780;9.204;2022-11-15T08:39:28;10.63;;;5.38;;
46487;SDS011;32202;48.780;9.204;2022-11-15T08:41:53;10.90;;;5.43;;
46487;SDS011;32202;48.780;9.204;2022-11-15T08:44:19;9.77;;;5.78;;
46487;SDS011;32202;48.780;9.204;2022-11-15T08:46:47;14.77;;;6.20;;
46487;SDS011;32202;48.780;9.204;2022-11-15T08:49:13;12.57;;;6.53;;
46487;SDS011;32202;48.780;9.204;2022-11-15T08:51:38;12.38;;;6.65;;
46487;SDS011;32202;48.780;9.204;2022-11-15T08:54:04;11.93;;;5.82;;
46487;SDS011;32202;48.780;9.204;2022-11-15T08:56:30;14.10;;;5.88;;
46487;SDS011;32202;48.780;9.204;2022-11-15T08:58:56;11.63;;;5.88;;
46487;SDS011;32202;48.780;9.204;2022-11-15T09:01:21;12.98;;;5.43;;
46487;SDS011;32202;48.780;9.204;2022-11-15T09:03:47;16.88;;;6.28;;
46487;SDS011;32202;48.780;9.204;2022-11-15T09:06:13;11.65;;;5.78;;
46487;SDS011;32202;48.780;9.204;2022-11-15T09:08:40;11.65;;;6.10;;
46487;SDS011;32202;48.780;9.204;2022-11-15T09:11:06;12.02;;;6.25;;
46487;SDS011;32202;48.780;9.204;2022-11-15T09:13:33;11.35;;;5.97;;
46487;SDS011;32202;48.780;9.204;2022-11-15T09:16:01;13.40;;;6.15;;
46487;SDS011;32202;48.780;9.204;2022-11-15T09:18:28;8.45;;;4.75;;
46487;SDS011;32202;48.780;9.204;2022-11-15T09:21:00;11.85;;;6.75;;
46487;SDS011;32202;48.780;9.204;2022-11-15T09:23:27;8.98;;;4.93;;
46487;SDS011;32202;48.780;9.204;2022-11-15T09:25:57;10.23;;;5.47;;
46487;SDS011;32202;48.780;9.204;2022-11-15T09:28:25;11.93;;;5.00;;
46487;SDS011;32202;48.780;9.204;2022-11-15T09:30:55;10.07;;;4.95;;
46487;SDS011;32202;48.780;9.204;2022-11-15T09:33:21;10.45;;;5.18;;
46487;SDS011;32202;48.780;9.204;2022-11-15T09:35:47;9.30;;;4.90;;
46487;SDS011;32202;48.780;9.204;2022-11-15T09:38:12;10.88;;;5.57;;
46487;SDS011;32202;48.780;9.204;2022-11-15T09:40:38;10.25;;;5.07;;
46487;SDS011;32202;48.780;9.204;2022-11-15T09:51:09;10.45;;;4.32;;
46487;SDS011;32202;48.780;9.204;2022-11-15T09:53:49;8.50;;;4.00;;
46487;SDS011;32202;48.780;9.204;2022-11-15T09:56:26;14.48;;;4.55;;
46487;SDS011;32202;48.780;9.204;2022-11-15T10:04:42;14.20;;;7.70;;
46487;SDS011;32202;48.780;9.204;2022-11-15T10:07:16;11.23;;;6.57;;
46487;SDS011;32202;48.780;9.204;2022-11-15T10:10:00;8.57;;;4.97;;
46487;SDS011;32202;48.780;9.204;2022-11-15T10:12:36;6.47;;;4.15;;
46487;SDS011;32202;48.780;9.204;2022-11-15T10:15:06;10.07;;;4.72;;
46487;SDS011;32202;48.780;9.204;2022-11-15T10:20:21;9.98;;;5.60;;
46487;SDS011;32202;48.780;9.204;2022-11-15T10:25:23;9.30;;;4.35;;
46487;SDS011;32202;48.780;9.204;2022-11-15T10:27:54;9.65;;;5.20;;
46487;SDS011;32202;48.780;9.204;2022-11-15T10:30:36;9.32;;;4.88;;
46487;SDS011;32202;48.780;9.204;2022-11-15T10:35:46;7.40;;;4.78;;
46487;SDS011;32202;48.780;9.204;2022-11-15T10:38:12;11.15;;;4.82;;
46487;SDS011;32202;48.780;9.204;2022-11-15T10:40:39;10.93;;;5.15;;
46487;SDS011;32202;48.780;9.204;2022-11-15T10:45:34;12.40;;;5.70;;
46487;SDS011;32202;48.780;9.204;2022-11-15T10:50:39;12.88;;;5.80;;
46487;SDS011;32202;48.780;9.204;2022-11-15T10:53:18;14.80;;;5.70;;
46487;SDS011;32202;48.780;9.204;2022-11-15T10:55:52;14.45;;;6.45;;
46487;SDS011;32202;48.780;9.204;2022-11-15T11:01:14;15.77;;;6.43;;
46487;SDS011;32202;48.780;9.204;2022-11-15T11:03:42;11.65;;;5.95;;
46487;SDS011;32202;48.780;9.204;2022-11-15T11:06:10;12.30;;;5.82;;
46487;SDS011;32202;48.780;9.204;2022-11-15T11:08:40;11.90;;;5.72;;
46487;SDS011;32202;48.780;9.204;2022-11-15T11:11:43;12.65;;;5.30;;
46487;SDS011;32202;48.780;9.204;2022-11-15T11:14:29;11.70;;;5.40;;
46487;SDS011;32202;48.780;9.204;2022-11-15T11:35:01;11.88;;;5.65;;
46487;SDS011;32202;48.780;9.204;2022-11-15T11:37:54;14.55;;;6.10;;
46487;SDS011;32202;48.780;9.204;2022-11-15T11:40:31;14.10;;;5.53;;
46487;SDS011;32202;48.780;9.204;2022-11-15T11:46:01;12.07;;;6.10;;
46487;SDS011;32202;48.780;9.204;2022-11-15T11:48:40;11.15;;;6.25;;
46487;SDS011;32202;48.780;9.204;2022-11-15T11:51:25;20.52;;;10.13;;
46487;SDS011;32202;48.780;9.204;2022-11-15T11:56:41;12.30;;;5.47;;
46487;SDS011;32202;48.780;9.204;2022-11-15T12:01:39;16.30;;;5.65;;
46487;SDS011;32202;48.780;9.204;2022-11-15T12:06:46;10.85;;;4.85;;
46487;SDS011;32202;48.780;9.204;2022-11-15T12:09:30;7.60;;;3.47;;
46487;SDS011;32202;48.780;9.204;2022-11-15T12:12:13;7.43;;;3.95;;
46487;SDS011;32202;48.780;9.204;2022-11-15T12:14:48;7.70;;;3.55;;
46487;SDS011;32202;48.780;9.204;2022-11-15T12:17:20;7.43;;;3.90;;
46487;SDS011;32202;48.780;9.204;2022-11-15T12:19:48;16.25;;;8.85;;
46487;SDS011;32202;48.780;9.204;2022-11-15T12:22:22;27.27;;;16.80;;
46487;SDS011;32202;48.780;9.204;2022-11-15T12:30:51;16.40;;;9.40;;
46487;SDS011;32202;48.780;9.204;2022-11-15T12:33:34;15.32;;;6.22;;
46487;SDS011;32202;48.780;9.204;2022-11-15T12:36:05;12.82;;;8.98;;
46487;SDS011;32202;48.780;9.204;2022-11-15T12:41:40;12.25;;;3.88;;
46487;SDS011;32202;48.780;9.204;2022-11-15T12:47:02;8.55;;;4.35;;
46487;SDS011;32202;48.780;9.204;2022-11-15T12:49:47;7.53;;;3.42;;
46487;SDS011;32202;48.780;9.204;2022-11-15T12:52:13;11.98;;;3.10;;
46487;SDS011;32202;48.780;9.204;2022-11-15T13:02:22;14.27;;;3.28;;
46487;SDS011;32202;48.780;9.204;2022-11-15T13:04:51;5.90;;;3.78;;
46487;SDS011;32202;48.780;9.204;2022-11-15T13:17:44;16.05;;;9.40;;
46487;SDS011;32202;48.780;9.204;2022-11-15T13:20:21;13.43;;;8.38;;
46487;SDS011;32202;48.780;9.204;2022-11-15T13:22:59;8.95;;;4.70;;
46487;SDS011;32202;48.780;9.204;2022-11-15T13:33:55;7.25;;;3.80;;
46487;SDS011;32202;48.780;9.204;2022-11-15T13:36:27;6.53;;;3.35;;
46487;SDS011;32202;48.780;9.204;2022-11-15T13:41:26;5.22;;;3.33;;
46487;SDS011;32202;48.780;9.204;2022-11-15T13:43:59;7.13;;;3.78;;
46487;SDS011;32202;48.780;9.204;2022-11-15T13:46:30;7.13;;;3.53;;
46487;SDS011;32202;48.780;9.204;2022-11-15T13:49:01;7.90;;;4.18;;
46487;SDS011;32202;48.780;9.204;2022-11-15T13:56:49;9.70;;;4.95;;
46487;SDS011;32202;48.780;9.204;2022-11-15T13:59:33;9.48;;;4.75;;
46487;SDS011;32202;48.780;9.204;2022-11-15T14:04:35;66.13;;;35.05;;
46487;SDS011;32202;48.780;9.204;2022-11-15T14:07:03;110.93;;;59.05;;
46487;SDS011;32202;48.780;9.204;2022-11-15T14:11:58;14.27;;;6.13;;
46487;SDS011;32202;48.780;9.204;2022-11-15T14:14:25;165.45;;;88.68;;
46487;SDS011;32202;48.780;9.204;2022-11-15T14:16:56;39.25;;;22.52;;
46487;SDS011;32202;48.780;9.204;2022-11-15T14:24:35;8.57;;;4.40;;
46487;SDS011;32202;48.780;9.204;2022-11-15T14:27:17;8.23;;;4.72;;
46487;SDS011;32202;48.780;9.204;2022-11-15T14:29:47;13.45;;;5.38;;
46487;SDS011;32202;48.780;9.204;2022-11-15T14:34:47;8.93;;;5.07;;
46487;SDS011;32202;48.780;9.204;2022-11-15T14:37:20;10.68;;;5.90;;
46487;SDS011;32202;48.780;9.204;2022-11-15T14:39:47;10.13;;;5.43;;
46487;SDS011;32202;48.780;9.204;2022-11-15T14:42:13;11.50;;;7.15;;
46487;SDS011;32202;48.780;9.204;2022-11-15T14:44:38;9.10;;;4.80;;
46487;SDS011;32202;48.780;9.204;2022-11-15T14:47:04;9.80;;;4.90;;
46487;SDS011;32202;48.780;9.204;2022-11-15T14:49:30;9.85;;;4.43;;
46487;SDS011;32202;48.780;9.204;2022-11-15T14:51:55;13.30;;;6.03;;
46487;SDS011;32202;48.780;9.204;2022-11-15T14:54:21;109.03;;;55.05;;
46487;SDS011;32202;48.780;9.204;2022-11-15T14:56:46;66.75;;;33.90;;
46487;SDS011;32202;48.780;9.204;2022-11-15T14:59:12;19.48;;;11.15;;
46487;SDS011;32202;48.780;9.204;2022-11-15T15:01:38;8.75;;;5.57;;
46487;SDS011;32202;48.780;9.204;2022-11-15T15:04:04;11.65;;;5.32;;
46487;SDS011;32202;48.780;9.204;2022-11-15T15:06:30;8.88;;;5.07;;
46487;SDS011;32202;48.780;9.204;2022-11-15T15:08:55;9.82;;;5.25;;
46487;SDS011;32202;48.780;9.204;2022-11-15T15:13:49;9.20;;;4.35;;
46487;SDS011;32202;48.780;9.204;2022-11-15T15:16:15;7.93;;;4.15;;
46487;SDS011;32202;48.780;9.204;2022-11-15T15:18:41;12.85;;;8.35;;
46487;SDS011;32202;48.780;9.204;2022-11-15T15:24:04;10.52;;;5.43;;
46487;SDS011;32202;48.780;9.204;2022-11-15T15:26:30;11.48;;;5.43;;
46487;SDS011;32202;48.780;9.204;2022-11-15T15:31:26;10.65;;;4.82;;
46487;SDS011;32202;48.780;9.204;2022-11-15T15:33:52;8.63;;;4.85;;
46487;SDS011;32202;48.780;9.204;2022-11-15T15:36:18;9.25;;;4.78;;
46487;SDS011;32202;48.780;9.204;2022-11-15T15:38:44;11.02;;;4.63;;
46487;SDS011;32202;48.780;9.204;2022-11-15T15:41:11;11.63;;;5.30;;
46487;SDS011;32202;48.780;9.204;2022-11-15T15:43:38;8.98;;;5.22;;
46487;SDS011;32202;48.780;9.204;2022-11-15T15:46:04;9.13;;;4.82;;
46487;SDS011;32202;48.780;9.204;2022-11-15T15:48:33;10.05;;;4.70;;
46487;SDS011;32202;48.780;9.204;2022-11-15T15:51:02;11.25;;;5.60;;
46487;SDS011;32202;48.780;9.204;2022-11-15T15:53:27;12.60;;;4.80;;
46487;SDS011;32202;48.780;9.204;2022-11-15T15:55:53;10.55;;;5.30;;
46487;SDS011;32202;48.780;9.204;2022-11-15T15:58:19;10.52;;;5.32;;
46487;SDS011;32202;48.780;9.204;2022-11-15T16:00:45;10.60;;;4.93;;
46487;SDS011;32202;48.780;9.204;2022-11-15T16:03:11;8.93;;;5.38;;
46487;SDS011;32202;48.780;9.204;2022-11-15T16:05:39;13.20;;;5.80;;
46487;SDS011;32202;48.780;9.204;2022-11-15T16:08:05;8.20;;;4.50;;
46487;SDS011;32202;48.780;9.204;2022-11-15T16:10:34;7.45;;;4.55;;
46487;SDS011;32202;48.780;9.204;2022-11-15T16:13:01;7.13;;;4.30;;
46487;SDS011;32202;48.780;9.204;2022-11-15T16:15:28;11.27;;;4.63;;
46487;SDS011;32202;48.780;9.204;2022-11-15T16:17:56;592.25;;;359.98;;
46487;SDS011;32202;48.780;9.204;2022-11-15T16:20:29;123.75;;;64.03;;
46487;SDS011;32202;48.780;9.204;2022-11-15T16:23:04;16.25;;;7.40;;
46487;SDS011;32202;48.780;9.204;2022-11-15T16:25:40;8.57;;;4.38;;
46487;SDS011;32202;48.780;9.204;2022-11-15T16:28:27;8.35;;;4.68;;
46487;SDS011;32202;48.780;9.204;2022-11-15T16:33:27;8.65;;;4.57;;
46487;SDS011;32202;48.780;9.204;2022-11-15T16:35:52;8.48;;;4.28;;
46487;SDS011;32202;48.780;9.204;2022-11-15T16:38:18;11.07;;;5.13;;
46487;SDS011;32202;48.780;9.204;2022-11-15T16:40:44;8.90;;;4.00;;
46487;SDS011;32202;48.780;9.204;2022-11-15T16:43:09;9.15;;;5.38;;
46487;SDS011;32202;48.780;9.204;2022-11-15T16:45:35;9.55;;;4.90;;
46487;SDS011;32202;48.780;9.204;2022-11-15T16:48:01;6.78;;;4.28;;
46487;SDS011;32202;48.780;9.204;2022-11-15T16:50:28;9.27;;;4.75;;
46487;SDS011;32202;48.780;9.204;2022-11-15T16:52:57;9.23;;;5.03;;
46487;SDS011;32202;48.780;9.204;2022-11-15T16:55:26;7.13;;;4.82;;
46487;SDS011;32202;48.780;9.204;2022-11-15T16:57:54;7.72;;;3.85;;
46487;SDS011;32202;48.780;9.204;2022-11-15T17:00:21;6.75;;;4.60;;
46487;SDS011;32202;48.780;9.204;2022-11-15T17:02:48;9.85;;;4.88;;
46487;SDS011;32202;48.780;9.204;2022-11-15T17:05:15;10.73;;;5.20;;
46487;SDS011;32202;48.780;9.204;2022-11-15T17:07:42;10.90;;;5.60;;
46487;SDS011;32202;48.780;9.204;2022-11-15T17:10:14;8.57;;;4.53;;
46487;SDS011;32202;48.780;9.204;2022-11-15T17:12:40;9.10;;;4.75;;
46487;SDS011;32202;48.780;9.204;2022-11-15T17:15:06;10.32;;;5.47;;
46487;SDS011;32202;48.780;9.204;2022-11-15T17:17:32;12.90;;;4.88;;
46487;SDS011;32202;48.780;9.204;2022-11-15T17:19:58;10.07;;;5.30;;
46487;SDS011;32202;48.780;9.204;2022-11-15T17:22:23;10.70;;;4.80;;